Time;durP1;ratioP1;P1;durP2;ratioP2;P2;SDS_P1;SDS_P2;PMS_P1;PMS_P2;Temp;Humidity;BMP_temperature;BMP_pressure;BME280_temperature;BME280_humidity;BME280_pressure;Samples;Min_cycle;Max_cycle;Signal;HPM_P1;HPM_P2
2022/09/26 00:02:03;;;;;;;3.97;2.80;;;11.40;99.90;;;;;;5126136;27;20424;-54
2022/09/26 00:04:28;;;;;;;3.00;2.27;;;11.40;99.90;;;;;;5112060;27;20035;-53
2022/09/26 00:06:55;;;;;;;4.13;2.40;;;11.40;99.90;;;;;;5112645;28;20040;-53
2022/09/26 00:09:23;;;;;;;5.50;2.45;;;11.40;99.90;;;;;;5112720;28;20392;-53
2022/09/26 00:11:49;;;;;;;3.85;2.10;;;11.40;99.90;;;;;;5113477;27;20452;-53
2022/09/26 00:14:21;;;;;;;7.40;1.70;;;11.40;99.90;;;;;;5132717;27;20042;-56
2022/09/26 00:16:48;;;;;;;2.22;2.03;;;11.40;99.90;;;;;;5132353;27;20039;-55
2022/09/26 00:19:13;;;;;;;2.25;1.67;;;11.40;99.90;;;;;;5132856;27;20499;-56
2022/09/26 00:21:39;;;;;;;3.45;2.20;;;11.40;99.90;;;;;;5114602;27;20036;-56
2022/09/26 00:24:05;;;;;;;5.32;2.03;;;11.40;99.90;;;;;;5114415;27;20096;-55
2022/09/26 00:26:33;;;;;;;3.63;1.75;;;11.40;99.90;;;;;;5116342;27;20039;-53
2022/09/26 00:29:00;;;;;;;6.38;2.08;;;11.40;99.90;;;;;;5132248;27;20110;-53
2022/09/26 00:31:30;;;;;;;4.90;2.47;;;11.40;99.90;;;;;;5114061;27;20047;-55
2022/09/26 00:33:56;;;;;;;3.92;2.40;;;11.40;99.90;;;;;;5130598;27;20035;-54
2022/09/26 00:36:22;;;;;;;2.20;1.60;;;11.40;99.90;;;;;;5132603;27;20399;-53
2022/09/26 00:38:48;;;;;;;5.93;2.50;;;11.40;99.90;;;;;;5132311;27;20039;-57
2022/09/26 00:41:15;;;;;;;4.10;2.00;;;11.40;99.90;;;;;;5132609;27;20031;-58
2022/09/26 00:43:50;;;;;;;2.58;2.22;;;11.40;99.90;;;;;;5125438;27;20282;-57
2022/09/26 00:46:38;;;;;;;5.38;1.95;;;11.40;99.90;;;;;;5111908;28;20036;-55
2022/09/26 00:49:25;;;;;;;6.80;2.70;;;11.40;99.90;;;;;;5116683;27;20179;-56
2022/09/26 00:52:00;;;;;;;2.58;2.08;;;11.30;99.90;;;;;;5111786;28;20509;-57
2022/09/26 00:54:28;;;;;;;4.38;2.63;;;11.30;99.90;;;;;;5120403;27;20118;-54
2022/09/26 00:56:57;;;;;;;5.55;2.47;;;11.30;99.90;;;;;;5132529;27;20116;-55
2022/09/26 00:59:33;;;;;;;6.68;2.08;;;11.30;99.90;;;;;;5119610;27;20039;-56
2022/09/26 01:01:59;;;;;;;7.07;2.27;;;11.30;99.90;;;;;;5149862;27;20042;-55
2022/09/26 01:04:27;;;;;;;7.03;1.67;;;11.30;99.90;;;;;;5135957;27;20104;-56
2022/09/26 01:06:55;;;;;;;3.00;2.15;;;11.30;99.90;;;;;;5123994;27;20576;-59
2022/09/26 01:09:21;;;;;;;5.60;1.73;;;11.30;99.90;;;;;;5111579;28;20092;-58
2022/09/26 01:11:47;;;;;;;5.47;1.92;;;11.30;99.90;;;;;;5111357;28;20044;-57
2022/09/26 01:14:13;;;;;;;5.18;1.80;;;11.20;99.90;;;;;;5112490;27;20038;-55
2022/09/26 01:16:41;;;;;;;5.75;2.15;;;11.20;99.90;;;;;;5111213;28;20077;-53
2022/09/26 01:19:28;;;;;;;5.20;1.85;;;11.20;99.90;;;;;;5111441;28;20515;-55
2022/09/26 01:22:17;;;;;;;2.05;1.83;;;11.20;99.90;;;;;;5115375;27;20404;-53
2022/09/26 01:24:58;;;;;;;7.15;1.65;;;11.20;99.90;;;;;;5124513;27;20530;-54
2022/09/26 01:27:48;;;;;;;7.25;1.67;;;11.20;99.90;;;;;;5131074;27;20043;-56
2022/09/26 01:30:20;;;;;;;3.78;1.50;;;11.20;99.90;;;;;;5131694;27;20038;-56
2022/09/26 01:33:16;;;;;;;7.35;2.22;;;11.20;99.90;;;;;;5131245;27;20515;-55
2022/09/26 01:35:53;;;;;;;6.70;2.70;;;11.20;99.90;;;;;;5119246;27;20580;-56
2022/09/26 01:38:49;;;;;;;3.80;1.83;;;11.20;99.90;;;;;;5110189;28;20043;-54
2022/09/26 01:41:48;;;;;;;4.90;1.67;;;11.20;99.90;;;;;;5110957;28;20036;-53
2022/09/26 01:44:32;;;;;;;3.72;1.80;;;11.20;99.90;;;;;;5109796;28;20472;-55
2022/09/26 01:47:20;;;;;;;6.88;2.00;;;11.20;99.90;;;;;;5093436;28;20042;-52
2022/09/26 01:50:05;;;;;;;4.40;1.90;;;11.20;99.90;;;;;;5123593;27;20142;-52
2022/09/26 01:52:58;;;;;;;5.15;2.15;;;11.20;99.90;;;;;;5130897;27;20091;-54
2022/09/26 01:55:29;;;;;;;3.10;2.30;;;11.10;99.90;;;;;;5130176;27;20130;-53
2022/09/26 01:58:04;;;;;;;4.28;1.88;;;11.10;99.90;;;;;;5131181;27;20043;-53
2022/09/26 02:00:31;;;;;;;10.85;2.00;;;11.10;99.90;;;;;;5131413;27;20038;-53
2022/09/26 02:02:58;;;;;;;5.93;2.25;;;11.10;99.90;;;;;;5130363;28;20039;-54
2022/09/26 02:05:38;;;;;;;4.15;2.10;;;11.10;99.90;;;;;;5131240;28;20046;-53
2022/09/26 02:08:16;;;;;;;4.07;2.25;;;11.10;99.90;;;;;;5112912;28;20046;-53
2022/09/26 02:10:48;;;;;;;2.60;1.95;;;11.10;99.90;;;;;;5110561;28;20132;-53
2022/09/26 02:13:21;;;;;;;6.57;1.92;;;11.10;99.90;;;;;;5110198;28;20134;-54
2022/09/26 02:15:51;;;;;;;4.22;2.83;;;11.00;99.90;;;;;;5110817;28;20051;-57
2022/09/26 02:18:27;;;;;;;3.28;2.25;;;11.10;99.90;;;;;;5127707;28;20047;-54
2022/09/26 02:21:00;;;;;;;4.23;2.90;;;11.00;99.90;;;;;;5131160;28;20024;-55
2022/09/26 02:23:26;;;;;;;6.43;2.47;;;11.10;99.90;;;;;;5130862;28;20078;-52
2022/09/26 02:25:52;;;;;;;4.97;3.03;;;11.00;99.90;;;;;;5113308;28;20063;-53
2022/09/26 02:28:18;;;;;;;4.97;3.03;;;11.10;99.90;;;;;;5121329;28;20047;-53
2022/09/26 02:30:46;;;;;;;5.13;3.00;;;11.10;99.90;;;;;;5130335;28;20035;-53
2022/09/26 02:33:12;;;;;;;4.10;3.38;;;11.10;99.90;;;;;;5129799;28;20134;-58
2022/09/26 02:35:53;;;;;;;3.33;2.75;;;11.10;99.90;;;;;;5118078;28;20536;-55
2022/09/26 02:38:19;;;;;;;6.10;3.55;;;11.20;99.90;;;;;;5109909;28;20061;-53
2022/09/26 02:41:23;;;;;;;5.13;3.22;;;11.10;99.90;;;;;;5110290;28;20036;-53
2022/09/26 02:44:14;;;;;;;3.72;3.08;;;11.20;99.90;;;;;;5092165;28;20051;-53
2022/09/26 02:46:39;;;;;;;9.20;3.38;;;11.20;99.90;;;;;;5130361;28;20038;-58
2022/09/26 02:49:20;;;;;;;5.00;3.23;;;11.20;99.90;;;;;;5131134;28;20039;-53
2022/09/26 02:51:57;;;;;;;4.75;3.40;;;11.20;99.90;;;;;;5134941;27;20050;-56
2022/09/26 02:54:45;;;;;;;8.35;4.20;;;11.20;99.90;;;;;;5134750;27;20043;-53
2022/09/26 02:57:44;;;;;;;7.07;3.42;;;11.20;99.90;;;;;;5134261;27;20055;-53
2022/09/26 03:00:23;;;;;;;5.00;4.05;;;11.20;99.90;;;;;;5134467;27;20067;-52
2022/09/26 03:03:00;;;;;;;7.78;3.42;;;11.20;99.90;;;;;;5134276;27;20034;-54
2022/09/26 03:05:28;;;;;;;5.88;5.10;;;11.20;99.90;;;;;;5132484;27;20443;-53
2022/09/26 03:08:15;;;;;;;6.05;4.25;;;11.20;99.90;;;;;;5134326;27;20053;-57
2022/09/26 03:10:41;;;;;;;5.95;5.22;;;11.20;99.90;;;;;;5136540;27;20437;-53
2022/09/26 03:13:12;;;;;;;7.82;5.05;;;11.20;99.90;;;;;;5143645;27;20061;-55
2022/09/26 03:15:40;;;;;;;9.73;4.88;;;11.20;99.90;;;;;;5139314;27;20567;-53
2022/09/26 03:18:12;;;;;;;9.18;5.03;;;11.20;99.90;;;;;;5131371;27;20073;-52
2022/09/26 03:20:39;;;;;;;9.15;6.00;;;11.20;99.90;;;;;;5140742;27;20039;-53
2022/09/26 03:23:05;;;;;;;8.70;5.47;;;11.20;99.90;;;;;;5132792;27;20031;-54
2022/09/26 03:25:32;;;;;;;7.28;6.05;;;11.20;99.90;;;;;;5134475;27;20232;-53
2022/09/26 03:28:00;;;;;;;;;;;11.20;99.90;;;;;;5121706;27;20043;-56
2022/09/26 03:30:28;;;;;;;11.82;6.25;;;11.20;99.90;;;;;;5094681;28;19916;-53
2022/09/26 03:32:54;;;;;;;11.52;7.30;;;11.10;99.90;;;;;;5094693;28;20047;-55
2022/09/26 03:35:20;;;;;;;8.50;6.75;;;11.10;99.90;;;;;;5113106;28;20031;-58
2022/09/26 03:37:46;;;;;;;12.77;6.35;;;11.10;99.90;;;;;;5120343;27;20031;-57
2022/09/26 03:40:13;;;;;;;8.73;6.30;;;11.10;99.90;;;;;;5132533;27;20035;-55
2022/09/26 03:42:38;;;;;;;;;;;11.10;99.90;;;;;;5113572;27;20067;-56
2022/09/26 03:45:07;;;;;;;9.93;6.07;;;11.00;99.90;;;;;;5112076;28;20355;-55
2022/09/26 03:47:33;;;;;;;14.55;7.30;;;11.00;99.90;;;;;;5114321;27;20061;-54
2022/09/26 03:50:00;;;;;;;10.00;6.65;;;11.00;99.90;;;;;;5112876;27;20130;-53
2022/09/26 03:52:25;;;;;;;11.43;8.48;;;11.00;99.90;;;;;;5112854;28;20050;-54
2022/09/26 03:54:52;;;;;;;11.25;7.07;;;11.00;99.90;;;;;;5112387;28;20318;-57
2022/09/26 03:57:18;;;;;;;12.55;7.40;;;11.00;99.90;;;;;;5112442;28;20046;-60
2022/09/26 03:59:43;;;;;;;13.68;8.32;;;11.00;99.90;;;;;;5113714;27;20043;-57
2022/09/26 04:02:09;;;;;;;17.58;8.60;;;11.00;99.90;;;;;;5111979;28;20446;-58
2022/09/26 04:04:35;;;;;;;9.87;7.13;;;11.00;99.90;;;;;;5112244;27;20036;-56
2022/09/26 04:07:00;;;;;;;10.75;8.43;;;11.00;99.90;;;;;;5112392;28;20115;-58
2022/09/26 04:09:26;;;;;;;11.27;8.82;;;11.00;99.90;;;;;;5123621;27;20046;-59
2022/09/26 04:11:52;;;;;;;11.57;8.75;;;11.00;99.90;;;;;;5132776;27;20084;-59
2022/09/26 04:14:18;;;;;;;9.25;7.50;;;11.00;99.90;;;;;;5131998;27;20066;-60
2022/09/26 04:16:45;;;;;;;16.83;9.45;;;11.00;99.90;;;;;;5133061;27;20123;-59
2022/09/26 04:19:11;;;;;;;13.93;8.82;;;10.90;99.90;;;;;;5126415;27;20081;-58
2022/09/26 04:21:38;;;;;;;10.80;8.88;;;10.90;99.90;;;;;;5137405;27;20035;-57
2022/09/26 04:24:05;;;;;;;17.33;9.40;;;10.90;99.90;;;;;;5153142;27;20039;-59
2022/09/26 04:26:31;;;;;;;13.43;9.73;;;10.90;99.90;;;;;;5144997;27;20110;-56
2022/09/26 04:28:57;;;;;;;13.27;10.15;;;10.90;99.90;;;;;;5149422;27;20126;-60
2022/09/26 04:31:26;;;;;;;11.52;8.98;;;10.90;99.90;;;;;;5126391;27;20054;-59
2022/09/26 04:33:54;;;;;;;11.60;9.55;;;10.90;99.90;;;;;;5124909;27;20032;-57
2022/09/26 04:36:20;;;;;;;14.57;9.65;;;10.90;99.90;;;;;;5114139;27;20059;-58
2022/09/26 04:38:45;;;;;;;;;;;10.80;99.90;;;;;;5114596;27;20043;-56
2022/09/26 04:41:14;;;;;;;10.82;9.68;;;10.90;99.90;;;;;;5129762;27;19923;-58
2022/09/26 04:43:40;;;;;;;15.38;9.43;;;10.90;99.90;;;;;;5132232;27;20035;-57
2022/09/26 04:46:12;;;;;;;14.90;9.05;;;10.90;99.90;;;;;;5113620;27;20120;-57
2022/09/26 04:48:37;;;;;;;16.70;10.07;;;10.90;99.90;;;;;;5132321;27;20675;-57
2022/09/26 04:51:07;;;;;;;11.32;9.77;;;10.90;99.90;;;;;;5130438;27;20039;-57
2022/09/26 04:53:34;;;;;;;16.38;9.80;;;10.90;99.90;;;;;;5131682;27;20548;-57
2022/09/26 04:56:00;;;;;;;15.02;9.77;;;10.80;99.90;;;;;;5122687;27;20123;-58
2022/09/26 04:58:26;;;;;;;10.82;8.57;;;10.80;99.90;;;;;;5111632;28;20046;-59
2022/09/26 05:00:52;;;;;;;15.50;8.90;;;10.80;99.90;;;;;;5112482;27;20035;-59
2022/09/26 05:03:17;;;;;;;16.50;9.32;;;10.80;99.90;;;;;;5111192;28;20100;-57
2022/09/26 05:05:46;;;;;;;10.13;8.00;;;10.80;99.90;;;;;;5125983;27;20047;-58
2022/09/26 05:08:12;;;;;;;12.40;7.95;;;10.80;99.90;;;;;;5131499;27;20298;-58
2022/09/26 05:10:38;;;;;;;13.60;9.02;;;10.80;99.90;;;;;;5132062;27;20051;-54
2022/09/26 05:13:06;;;;;;;11.98;8.95;;;10.80;99.90;;;;;;5128828;27;20515;-55
2022/09/26 05:15:38;;;;;;;8.98;8.00;;;10.80;99.90;;;;;;5131458;27;20038;-52
2022/09/26 05:18:06;;;;;;;16.83;9.50;;;10.80;99.90;;;;;;5131605;27;20070;-54
2022/09/26 05:20:33;;;;;;;12.90;9.05;;;10.80;99.90;;;;;;5131646;27;20042;-52
2022/09/26 05:23:00;;;;;;;11.40;7.90;;;10.80;99.90;;;;;;5128928;27;20095;-53
2022/09/26 05:28:12;;;;;;;8.73;7.22;;;10.80;99.90;;;;;;5116127;27;20457;-56
2022/09/26 05:30:39;;;;;;;8.50;7.60;;;10.80;99.90;;;;;;5131580;27;20031;-57
2022/09/26 05:33:05;;;;;;;9.30;7.05;;;10.80;99.90;;;;;;5132702;27;20045;-53
2022/09/26 05:35:34;;;;;;;12.52;8.02;;;10.80;99.90;;;;;;5127040;27;20137;-52
2022/09/26 05:38:01;;;;;;;14.32;7.07;;;10.80;99.90;;;;;;5137564;27;20074;-52
2022/09/26 05:43:11;;;;;;;10.77;6.43;;;10.80;99.90;;;;;;5115943;27;20462;-54
2022/09/26 05:45:37;;;;;;;8.67;6.77;;;10.80;99.90;;;;;;5092345;28;20088;-55
2022/09/26 05:48:03;;;;;;;9.88;6.85;;;10.80;99.90;;;;;;5115038;27;20039;-57
2022/09/26 05:50:29;;;;;;;10.00;6.32;;;10.80;99.90;;;;;;5113848;27;20067;-57
2022/09/26 05:52:59;;;;;;;7.03;5.35;;;10.80;99.90;;;;;;5141205;27;20077;-56
2022/09/26 05:55:26;;;;;;;11.68;7.50;;;10.80;99.90;;;;;;5127903;27;20042;-58
2022/09/26 05:57:52;;;;;;;;;;;10.80;99.90;;;;;;5116919;27;20050;-58
2022/09/26 06:00:18;;;;;;;10.23;6.20;;;10.90;99.90;;;;;;5121094;27;19961;-57
2022/09/26 06:02:43;;;;;;;9.93;5.13;;;10.80;99.90;;;;;;5102179;28;20500;-59
2022/09/26 06:05:09;;;;;;;7.00;6.30;;;10.90;99.90;;;;;;5129898;28;20528;-54
2022/09/26 06:07:34;;;;;;;12.00;6.07;;;10.90;99.90;;;;;;5114381;28;20027;-54
2022/09/26 06:10:00;;;;;;;8.27;5.90;;;10.90;99.90;;;;;;5118781;28;20083;-57
2022/09/26 06:12:25;;;;;;;11.60;6.33;;;10.90;99.90;;;;;;5119443;28;20039;-52
2022/09/26 06:14:52;;;;;;;9.87;6.00;;;10.90;99.90;;;;;;5126880;27;20175;-55
2022/09/26 06:17:18;;;;;;;11.00;5.68;;;10.90;99.90;;;;;;5124754;27;20276;-55
2022/09/26 06:19:44;;;;;;;8.07;6.07;;;10.90;99.90;;;;;;5115621;28;20397;-56
2022/09/26 06:22:10;;;;;;;10.82;5.72;;;10.90;99.90;;;;;;5124128;28;20035;-52
2022/09/26 06:24:35;;;;;;;8.77;5.57;;;10.90;99.90;;;;;;5143659;27;20066;-55
2022/09/26 06:27:01;;;;;;;11.83;4.73;;;10.90;99.90;;;;;;5130084;27;20031;-56
2022/09/26 06:29:26;;;;;;;7.07;5.27;;;10.90;99.90;;;;;;5129998;27;20039;-54
2022/09/26 06:31:52;;;;;;;6.03;5.25;;;10.90;99.90;;;;;;5114406;28;20044;-53
2022/09/26 06:34:17;;;;;;;8.50;4.73;;;10.90;99.90;;;;;;5144122;27;20407;-53
2022/09/26 06:36:43;;;;;;;6.53;4.73;;;10.90;99.90;;;;;;5141918;27;20035;-53
2022/09/26 06:39:09;;;;;;;6.93;4.50;;;10.90;99.90;;;;;;5144270;27;20086;-55
2022/09/26 06:41:34;;;;;;;4.20;3.80;;;10.90;99.90;;;;;;5145916;27;20088;-56
2022/09/26 06:44:02;;;;;;;7.22;4.20;;;10.80;99.90;;;;;;5152873;27;20034;-54
2022/09/26 06:46:30;;;;;;;8.88;4.45;;;10.80;99.90;;;;;;5154503;27;20094;-53
2022/09/26 06:48:56;;;;;;;15.57;4.90;;;10.80;99.90;;;;;;5133843;27;20415;-54
2022/09/26 06:51:21;;;;;;;7.70;4.05;;;10.80;99.90;;;;;;5155217;27;20038;-56
2022/09/26 06:53:47;;;;;;;6.80;3.85;;;10.80;99.90;;;;;;5153367;27;20035;-54
2022/09/26 06:56:13;;;;;;;7.10;3.75;;;10.80;99.90;;;;;;5154848;27;20118;-56
2022/09/26 06:58:39;;;;;;;5.45;3.65;;;10.80;99.90;;;;;;5127017;27;20090;-57
2022/09/26 07:01:08;;;;;;;7.00;3.47;;;10.90;99.90;;;;;;5134188;27;20539;-55
2022/09/26 07:03:35;;;;;;;6.68;3.55;;;10.90;99.90;;;;;;5138336;27;20283;-51
2022/09/26 07:06:02;;;;;;;8.43;3.53;;;10.90;99.90;;;;;;5145590;27;20101;-53
2022/09/26 07:08:27;;;;;;;5.40;3.10;;;10.90;99.90;;;;;;5145286;27;20149;-53
2022/09/26 07:10:58;;;;;;;4.37;2.37;;;10.90;99.90;;;;;;5137537;27;20031;-53
2022/09/26 07:13:24;;;;;;;4.20;2.25;;;10.90;99.90;;;;;;5142227;27;20035;-52
2022/09/26 07:15:50;;;;;;;4.13;2.10;;;10.90;99.90;;;;;;5145358;27;20041;-51
2022/09/26 07:18:16;;;;;;;4.82;2.60;;;11.00;99.90;;;;;;5143355;27;20082;-53
2022/09/26 07:20:44;;;;;;;9.63;2.58;;;11.00;99.90;;;;;;5150797;27;20434;-54
2022/09/26 07:23:10;;;;;;;3.50;2.60;;;11.00;99.90;;;;;;5128713;27;20053;-55
2022/09/26 07:25:38;;;;;;;3.42;2.65;;;11.10;99.90;;;;;;5134220;27;20083;-55
2022/09/26 07:28:08;;;;;;;5.57;2.95;;;11.10;99.90;;;;;;5125956;27;20272;-50
2022/09/26 07:30:33;;;;;;;5.18;3.13;;;11.10;99.90;;;;;;5126918;27;20106;-51
2022/09/26 07:33:04;;;;;;;7.20;2.95;;;11.20;99.90;;;;;;5128618;27;20184;-53
2022/09/26 07:35:34;;;;;;;4.95;2.50;;;11.20;99.90;;;;;;5139269;27;20042;-51
2022/09/26 07:38:00;;;;;;;5.35;3.00;;;11.20;99.90;;;;;;5132763;27;20234;-52
2022/09/26 07:40:26;;;;;;;6.80;3.33;;;11.20;99.90;;;;;;5131578;27;20274;-53
2022/09/26 07:42:52;;;;;;;5.20;3.55;;;11.20;99.90;;;;;;5126617;27;20042;-59
2022/09/26 07:50:10;;;;;;;9.80;3.17;;;11.20;99.90;;;;;;5140618;27;20035;-53
2022/09/26 07:50:56;;;;;;;7.20;2.63;;;11.20;99.90;;;;;;5151169;27;20403;-51
2022/09/26 07:53:23;;;;;;;7.65;2.88;;;11.20;99.90;;;;;;5147918;27;20130;-51
2022/09/26 07:58:34;;;;;;;8.40;3.42;;;11.20;99.90;;;;;;5123033;27;20441;-51
2022/09/26 08:01:01;;;;;;;4.10;2.80;;;11.20;99.90;;;;;;5149263;27;20043;-56
2022/09/26 08:03:27;;;;;;;4.50;2.60;;;11.20;99.90;;;;;;5137797;27;20035;-51
2022/09/26 08:05:57;;;;;;;2.55;1.98;;;11.20;99.90;;;;;;5139963;27;20039;-51
2022/09/26 08:08:22;;;;;;;5.68;3.13;;;11.20;99.90;;;;;;5133100;27;20054;-53
2022/09/26 08:10:48;;;;;;;6.77;2.80;;;11.20;99.90;;;;;;5149511;27;20046;-55
2022/09/26 08:13:14;;;;;;;4.00;2.83;;;11.20;99.90;;;;;;5096326;28;20070;-51
2022/09/26 08:15:39;;;;;;;3.40;2.42;;;11.20;99.90;;;;;;5113978;27;20140;-54
2022/09/26 08:18:05;;;;;;;7.93;2.73;;;11.20;99.90;;;;;;5126894;27;20042;-53
2022/09/26 08:20:30;;;;;;;3.90;3.13;;;11.20;99.90;;;;;;5130207;27;20309;-54
2022/09/26 08:22:56;;;;;;;3.97;2.30;;;11.20;99.90;;;;;;5126290;27;20036;-52
2022/09/26 08:25:22;;;;;;;4.17;1.90;;;11.20;99.90;;;;;;5120832;27;20031;-53
2022/09/26 08:27:49;;;;;;;5.87;3.03;;;11.20;99.90;;;;;;5136088;27;20035;-51
2022/09/26 08:30:15;;;;;;;9.73;3.72;;;11.30;99.90;;;;;;5112035;27;20458;-54
2022/09/26 08:32:41;;;;;;;5.50;3.17;;;11.30;99.90;;;;;;5124097;27;20122;-55
2022/09/26 08:35:13;;;;;;;3.92;2.70;;;11.30;99.90;;;;;;5140173;27;20110;-54
2022/09/26 08:37:39;;;;;;;5.22;2.80;;;11.40;99.90;;;;;;5129274;27;20125;-51
2022/09/26 08:40:06;;;;;;;4.73;2.90;;;11.50;99.90;;;;;;5118233;27;20138;-51
2022/09/26 08:42:50;;;;;;;7.35;2.78;;;11.60;99.90;;;;;;5118926;27;20046;-49
2022/09/26 08:48:54;;;;;;;8.25;3.00;;;11.70;99.90;;;;;;5025064;28;20085;-52
2022/09/26 08:51:33;;;;;;;4.95;2.53;;;11.70;99.90;;;;;;5018702;28;20034;-56
2022/09/26 08:54:27;;;;;;;7.05;2.60;;;11.80;99.90;;;;;;5109840;27;20058;-53
2022/09/26 08:56:57;;;;;;;7.30;2.65;;;11.80;99.90;;;;;;5120266;27;20039;-56
2022/09/26 08:59:31;;;;;;;8.00;2.83;;;11.80;99.90;;;;;;5092038;27;20423;-55
2022/09/26 09:02:03;;;;;;;3.55;2.22;;;11.80;99.90;;;;;;5110620;27;20067;-53
2022/09/26 09:04:56;;;;;;;6.50;3.17;;;11.80;99.90;;;;;;5139517;27;20147;-55
2022/09/26 09:07:24;;;;;;;4.88;2.53;;;11.80;99.90;;;;;;5107870;27;20045;-54
2022/09/26 09:09:53;;;;;;;5.38;2.42;;;11.80;99.90;;;;;;5143525;27;20231;-55
2022/09/26 09:12:35;;;;;;;7.07;2.85;;;11.80;99.90;;;;;;5135241;27;20035;-57
2022/09/26 09:15:22;;;;;;;9.13;2.55;;;11.70;99.90;;;;;;5125261;27;20045;-56
2022/09/26 09:18:06;;;;;;;5.30;3.33;;;11.80;99.90;;;;;;5144014;27;20106;-56
2022/09/26 09:20:54;;;;;;;4.22;2.80;;;11.80;99.90;;;;;;5120299;27;20043;-51
2022/09/26 09:23:31;;;;;;;6.50;3.38;;;11.80;99.90;;;;;;5128575;27;20023;-53
2022/09/26 09:26:12;;;;;;;11.38;3.35;;;11.80;99.90;;;;;;5125474;27;20043;-51
2022/09/26 09:29:15;;;;;;;3.72;3.40;;;11.90;99.90;;;;;;5132408;27;20065;-56
2022/09/26 09:31:43;;;;;;;10.70;3.40;;;11.90;99.90;;;;;;5107931;28;20107;-51
2022/09/26 09:34:23;;;;;;;6.68;3.60;;;11.90;99.90;;;;;;5119212;27;20100;-53
2022/09/26 09:36:53;;;;;;;8.38;3.15;;;11.90;99.90;;;;;;5114614;27;20051;-51
2022/09/26 09:39:32;;;;;;;4.60;3.13;;;11.90;99.90;;;;;;5104172;27;20058;-53
2022/09/26 09:42:18;;;;;;;7.40;3.05;;;11.90;99.90;;;;;;5119053;27;20040;-55
2022/09/26 09:44:54;;;;;;;4.10;2.10;;;11.90;99.90;;;;;;5106315;28;20085;-51
2022/09/26 09:47:20;;;;;;;4.53;2.95;;;11.90;99.90;;;;;;5106309;28;20111;-55
2022/09/26 09:49:47;;;;;;;4.93;3.03;;;11.90;99.90;;;;;;5106537;28;20057;-51
2022/09/26 09:52:50;;;;;;;3.95;2.85;;;11.90;99.90;;;;;;5106850;28;20046;-51
2022/09/26 09:55:16;;;;;;;8.48;3.72;;;11.90;99.90;;;;;;5114761;27;20035;-57
2022/09/26 09:58:03;;;;;;;10.10;3.67;;;11.80;99.90;;;;;;5126926;28;20047;-54
2022/09/26 10:00:31;;;;;;;;;;;11.80;99.90;;;;;;5126336;27;20054;-50
2022/09/26 10:03:00;;;;;;;;;;;11.80;99.90;;;;;;5126581;27;20006;-54
2022/09/26 10:05:44;;;;;;;8.13;3.60;;;11.80;99.90;;;;;;5124474;28;19916;-50
2022/09/26 10:08:32;;;;;;;6.22;3.13;;;11.80;99.90;;;;;;5126803;28;20624;-51
2022/09/26 10:11:11;;;;;;;9.35;3.83;;;11.80;99.90;;;;;;5107871;28;20067;-51
2022/09/26 10:13:41;;;;;;;7.40;3.65;;;11.80;99.90;;;;;;5107280;27;20065;-53
2022/09/26 10:16:15;;;;;;;5.28;3.13;;;11.70;99.90;;;;;;5109437;27;20445;-55
2022/09/26 10:18:55;;;;;;;6.07;3.20;;;11.70;99.90;;;;;;5123971;27;20035;-54
2022/09/26 10:21:31;;;;;;;5.38;3.90;;;11.70;99.90;;;;;;5117394;27;20032;-55
2022/09/26 10:23:58;;;;;;;8.10;4.65;;;11.70;99.90;;;;;;5116381;27;20035;-53
2022/09/26 10:26:33;;;;;;;6.75;3.65;;;11.70;99.90;;;;;;5119248;27;20039;-51
2022/09/26 10:29:07;;;;;;;6.22;3.72;;;11.60;99.90;;;;;;5116143;27;20043;-54
2022/09/26 10:31:38;;;;;;;5.30;3.78;;;11.60;99.90;;;;;;5122954;28;20149;-53
2022/09/26 10:34:06;;;;;;;12.20;5.05;;;11.60;99.90;;;;;;5124348;27;20039;-55
2022/09/26 10:36:37;;;;;;;6.22;4.18;;;11.70;99.90;;;;;;5117175;27;20372;-52
2022/09/26 10:42:01;;;;;;;5.95;3.67;;;11.60;99.90;;;;;;5137157;27;20035;-56
2022/09/26 10:44:33;;;;;;;10.65;4.15;;;11.60;99.90;;;;;;5133014;27;20568;-51
2022/09/26 10:47:07;;;;;;;8.30;3.75;;;11.60;99.90;;;;;;5135395;27;20031;-52
2022/09/26 10:49:49;;;;;;;8.27;4.45;;;11.60;99.90;;;;;;5131708;27;20467;-55
2022/09/26 10:52:23;;;;;;;6.50;4.15;;;11.60;99.90;;;;;;5130525;27;20034;-54
2022/09/26 10:54:59;;;;;;;6.63;4.28;;;11.70;99.90;;;;;;5129498;27;20648;-55
2022/09/26 10:57:30;;;;;;;9.80;3.83;;;11.70;99.90;;;;;;5127529;27;20124;-55
2022/09/26 10:59:58;;;;;;;6.93;5.00;;;11.70;99.90;;;;;;5128040;27;20051;-55
2022/09/26 11:02:26;;;;;;;6.15;4.30;;;11.70;99.90;;;;;;5130511;27;20707;-52
2022/09/26 11:07:45;;;;;;;8.70;4.90;;;11.70;99.90;;;;;;5127969;27;20047;-55
2022/09/26 11:10:13;;;;;;;10.20;4.45;;;11.70;99.90;;;;;;5119668;27;20031;-55
2022/09/26 11:12:59;;;;;;;8.73;4.63;;;11.70;99.90;;;;;;5118678;27;21034;-55
2022/09/26 11:15:27;;;;;;;9.85;4.30;;;11.70;99.90;;;;;;5120640;27;20036;-53
2022/09/26 11:17:54;;;;;;;9.10;5.88;;;11.70;99.90;;;;;;5116915;27;20404;-56
2022/09/26 11:20:31;;;;;;;6.28;4.75;;;11.70;99.90;;;;;;5120420;27;20088;-54
2022/09/26 11:23:21;;;;;;;4.85;4.18;;;11.70;99.90;;;;;;5119511;27;20065;-54
2022/09/26 11:26:09;;;;;;;7.95;5.07;;;11.60;99.90;;;;;;5123593;27;20031;-51
2022/09/26 11:28:42;;;;;;;6.07;5.35;;;11.60;99.90;;;;;;5119565;27;20031;-55
2022/09/26 11:31:28;;;;;;;9.20;5.63;;;11.60;99.90;;;;;;5121335;27;20063;-55
2022/09/26 11:33:58;;;;;;;7.13;4.80;;;11.60;99.90;;;;;;5119860;27;20080;-54
2022/09/26 11:36:35;;;;;;;7.78;5.15;;;11.60;99.90;;;;;;5101079;27;20420;-53
2022/09/26 11:39:25;;;;;;;9.10;5.75;;;11.60;99.90;;;;;;5118231;27;20117;-55
2022/09/26 11:42:08;;;;;;;9.85;4.53;;;11.70;99.90;;;;;;5117493;27;20652;-56
2022/09/26 11:44:43;;;;;;;7.72;4.10;;;11.70;99.90;;;;;;5117059;27;20241;-55
2022/09/26 11:47:43;;;;;;;7.30;5.20;;;11.70;99.90;;;;;;5116799;27;20071;-55
2022/09/26 11:50:23;;;;;;;10.18;5.20;;;11.70;99.90;;;;;;5115548;27;20039;-57
2022/09/26 11:53:15;;;;;;;9.23;5.45;;;11.70;99.90;;;;;;5098496;27;20453;-51
2022/09/26 11:56:10;;;;;;;10.43;5.22;;;11.70;99.90;;;;;;5119882;27;20078;-53
2022/09/26 11:58:43;;;;;;;7.35;4.65;;;11.70;99.90;;;;;;5116526;27;20032;-57
2022/09/26 12:01:29;;;;;;;4.70;4.22;;;11.70;99.90;;;;;;5119631;27;20046;-52
2022/09/26 12:04:32;;;;;;;4.85;4.25;;;11.80;99.90;;;;;;5119803;27;20047;-51
2022/09/26 12:07:31;;;;;;;5.50;4.53;;;11.80;99.90;;;;;;5117367;27;20092;-54
2022/09/26 12:10:15;;;;;;;5.05;4.50;;;11.80;99.90;;;;;;5084282;27;20054;-54
2022/09/26 12:13:04;;;;;;;7.30;4.72;;;11.80;99.90;;;;;;5120489;27;20035;-56
2022/09/26 12:15:38;;;;;;;6.07;4.97;;;11.80;99.90;;;;;;5118627;27;20043;-53
2022/09/26 12:18:42;;;;;;;6.55;5.13;;;11.80;99.90;;;;;;5120364;27;20032;-51
2022/09/26 12:21:30;;;;;;;6.82;5.15;;;11.80;99.90;;;;;;5114292;27;20058;-53
2022/09/26 12:24:11;;;;;;;8.45;5.13;;;11.80;99.90;;;;;;5115154;27;20039;-51
2022/09/26 12:26:43;;;;;;;9.23;5.10;;;11.80;99.90;;;;;;5117020;27;20093;-55
2022/09/26 12:29:22;;;;;;;4.85;4.45;;;11.80;99.90;;;;;;5115733;27;20119;-50
2022/09/26 12:31:53;;;;;;;6.05;4.07;;;11.80;99.90;;;;;;5115718;27;20027;-54
2022/09/26 12:34:19;;;;;;;4.35;3.95;;;11.80;99.90;;;;;;5118158;27;21300;-54
2022/09/26 12:37:22;;;;;;;4.60;2.63;;;11.80;99.90;;;;;;5116773;27;20059;-54
2022/09/26 12:40:09;;;;;;;3.35;3.05;;;11.80;99.90;;;;;;5113671;27;20523;-56
2022/09/26 12:42:38;;;;;;;3.20;3.00;;;11.80;99.90;;;;;;5116845;27;20040;-53
2022/09/26 12:45:28;;;;;;;3.55;3.25;;;11.80;99.90;;;;;;5095267;27;20483;-51
2022/09/26 12:48:09;;;;;;;3.70;3.20;;;11.80;99.90;;;;;;5113747;27;20051;-50
2022/09/26 12:50:41;;;;;;;6.40;3.47;;;11.90;99.90;;;;;;5118145;27;20046;-52
2022/09/26 12:53:27;;;;;;;5.10;3.22;;;11.80;99.90;;;;;;5116629;27;20035;-52
2022/09/26 12:56:10;;;;;;;3.17;2.40;;;11.80;99.90;;;;;;5118065;27;20042;-52
2022/09/26 12:58:42;;;;;;;4.53;3.22;;;11.90;99.90;;;;;;5118267;27;20063;-52
2022/09/26 13:01:38;;;;;;;7.97;4.32;;;11.90;99.90;;;;;;5117732;27;20526;-52
2022/09/26 13:04:23;;;;;;;4.40;3.33;;;11.90;99.90;;;;;;5117939;27;20027;-53
2022/09/26 13:06:58;;;;;;;3.08;2.83;;;11.90;99.90;;;;;;5117581;27;20039;-51
2022/09/26 13:09:43;;;;;;;4.00;3.58;;;12.00;99.90;;;;;;5113805;27;20850;-53
2022/09/26 13:12:25;;;;;;;4.55;3.90;;;12.00;99.90;;;;;;5116229;27;20036;-51
2022/09/26 13:15:33;;;;;;;3.40;2.75;;;12.00;99.90;;;;;;5113703;27;20042;-51
2022/09/26 13:18:12;;;;;;;2.42;2.30;;;12.00;99.90;;;;;;5117970;27;20125;-51
2022/09/26 13:20:42;;;;;;;2.85;2.20;;;12.00;99.90;;;;;;5119438;27;20042;-51
2022/09/26 13:23:18;;;;;;;2.28;1.80;;;12.00;99.90;;;;;;5117567;27;20036;-53
2022/09/26 13:25:49;;;;;;;2.95;1.70;;;12.00;99.90;;;;;;5081982;27;20051;-52
2022/09/26 13:28:28;;;;;;;1.40;1.30;;;12.00;99.90;;;;;;5116753;27;20034;-51
2022/09/26 13:31:01;;;;;;;3.80;1.50;;;12.00;99.90;;;;;;5116007;27;20038;-51
2022/09/26 13:33:39;;;;;;;2.00;1.80;;;12.00;99.90;;;;;;5118206;27;20058;-52
2022/09/26 13:36:08;;;;;;;2.03;1.67;;;12.10;99.90;;;;;;5113433;27;20043;-49